Time;durP1;ratioP1;P1;durP2;ratioP2;P2;SDS_P1;SDS_P2;PMS_P1;PMS_P2;Temp;Humidity;BMP_temperature;BMP_pressure;BME280_temperature;BME280_humidity;BME280_pressure;Samples;Min_cycle;Max_cycle;Signal;HPM_P1;HPM_P2
2022/04/16 00:00:56;;;;;;;9.05;6.78;;;10.40;69.70;;;;;;5115635;27;20022;-71
2022/04/16 00:03:22;;;;;;;8.32;6.72;;;10.30;69.80;;;;;;5116605;27;20049;-71
2022/04/16 00:05:52;;;;;;;8.57;6.97;;;10.30;69.90;;;;;;5105799;27;20553;-71
2022/04/16 00:08:23;;;;;;;9.25;6.60;;;10.20;70.00;;;;;;5107094;28;20016;-73
2022/04/16 00:10:49;;;;;;;8.77;6.97;;;10.20;70.10;;;;;;5102298;27;20392;-71
2022/04/16 00:13:16;;;;;;;8.82;6.05;;;10.20;70.20;;;;;;5109161;28;20012;-70
2022/04/16 00:15:43;;;;;;;8.40;6.00;;;10.20;70.20;;;;;;5092653;28;20027;-71
2022/04/16 00:18:09;;;;;;;7.00;6.05;;;10.10;70.30;;;;;;5109665;27;20019;-71
2022/04/16 00:20:35;;;;;;;7.88;6.65;;;10.10;70.40;;;;;;5109002;28;20073;-70
2022/04/16 00:23:01;;;;;;;10.48;7.15;;;10.10;70.40;;;;;;5110120;28;20486;-71
2022/04/16 00:25:26;;;;;;;8.63;7.20;;;10.00;70.40;;;;;;5092301;27;20111;-73
2022/04/16 00:27:52;;;;;;;7.85;6.38;;;9.90;70.50;;;;;;5089937;27;20027;-71
2022/04/16 00:30:18;;;;;;;8.20;6.97;;;9.90;70.70;;;;;;5103849;28;20031;-71
2022/04/16 00:32:44;;;;;;;7.53;6.00;;;9.90;70.80;;;;;;5109884;28;20027;-70
2022/04/16 00:35:10;;;;;;;9.23;6.57;;;9.80;70.70;;;;;;5102195;27;20098;-68
2022/04/16 00:37:36;;;;;;;7.55;6.05;;;9.80;70.80;;;;;;5105865;28;20027;-69
2022/04/16 00:40:02;;;;;;;8.15;6.57;;;9.70;70.90;;;;;;5089056;28;20039;-69
2022/04/16 00:42:38;;;;;;;8.27;6.72;;;9.70;71.00;;;;;;5108960;28;20486;-69
2022/04/16 00:45:04;;;;;;;9.95;7.20;;;9.70;71.00;;;;;;5098711;28;20039;-69
2022/04/16 00:47:29;;;;;;;8.23;6.22;;;9.60;71.00;;;;;;5104737;28;20015;-70
2022/04/16 00:49:55;;;;;;;6.63;5.45;;;9.60;71.20;;;;;;5084532;28;20024;-72
2022/04/16 00:52:21;;;;;;;8.18;6.55;;;9.60;71.20;;;;;;5102958;28;20024;-72
2022/04/16 00:54:49;;;;;;;7.15;6.20;;;9.50;71.30;;;;;;5103017;28;20032;-71
2022/04/16 00:57:17;;;;;;;8.68;6.75;;;9.50;71.40;;;;;;5107300;28;20024;-71
2022/04/16 00:59:42;;;;;;;9.18;7.03;;;9.50;71.50;;;;;;5082965;28;20105;-71
2022/04/16 01:02:09;;;;;;;9.25;7.13;;;9.50;71.60;;;;;;5104507;28;20034;-71
2022/04/16 01:04:35;;;;;;;8.73;6.68;;;9.50;71.60;;;;;;5087480;28;20023;-70
2022/04/16 01:07:00;;;;;;;9.57;7.57;;;9.40;71.60;;;;;;5112505;27;20031;-71
2022/04/16 01:09:26;;;;;;;9.95;7.68;;;9.40;71.70;;;;;;5122273;27;20019;-70
2022/04/16 01:11:51;;;;;;;10.82;8.02;;;9.30;71.70;;;;;;5101361;27;20022;-70
2022/04/16 01:14:19;;;;;;;9.02;7.72;;;9.30;72.40;;;;;;5110496;27;20027;-71
2022/04/16 01:16:45;;;;;;;9.43;7.75;;;9.30;71.90;;;;;;5111679;27;20019;-72
2022/04/16 01:19:11;;;;;;;10.80;9.05;;;9.20;72.00;;;;;;5111532;27;20100;-72
2022/04/16 01:21:37;;;;;;;10.60;8.20;;;9.10;72.10;;;;;;5107414;27;20110;-71
2022/04/16 01:24:05;;;;;;;9.02;7.43;;;9.00;72.30;;;;;;5105178;28;20062;-71
2022/04/16 01:26:31;;;;;;;10.45;7.88;;;9.00;72.40;;;;;;5084743;28;20538;-72
2022/04/16 01:28:56;;;;;;;11.63;8.40;;;9.00;72.50;;;;;;5104637;28;20023;-72
2022/04/16 01:31:22;;;;;;;9.68;7.97;;;9.00;72.60;;;;;;5086612;28;20527;-72
2022/04/16 01:33:47;;;;;;;11.63;9.00;;;8.90;72.70;;;;;;5104785;28;20485;-72
2022/04/16 01:36:13;;;;;;;10.65;8.75;;;8.90;72.80;;;;;;5085345;28;20030;-70
2022/04/16 01:38:39;;;;;;;11.90;9.20;;;8.90;72.90;;;;;;5110788;28;20032;-72
2022/04/16 01:41:04;;;;;;;10.55;8.27;;;8.80;73.00;;;;;;5104264;28;20069;-72
2022/04/16 01:43:30;;;;;;;10.45;8.15;;;8.90;73.20;;;;;;5110346;28;20019;-72
2022/04/16 01:45:56;;;;;;;10.75;9.05;;;8.80;73.10;;;;;;5105420;28;20030;-72
2022/04/16 01:48:27;;;;;;;9.25;7.88;;;8.80;73.30;;;;;;5108061;28;20019;-73
2022/04/16 01:50:53;;;;;;;10.27;7.70;;;8.80;73.30;;;;;;5106181;28;20707;-73
2022/04/16 01:53:19;;;;;;;9.77;7.10;;;8.70;73.40;;;;;;5110299;28;20150;-72
2022/04/16 01:55:45;;;;;;;11.07;8.00;;;8.70;73.40;;;;;;5108238;28;20107;-71
2022/04/16 01:58:11;;;;;;;10.27;8.57;;;8.70;73.50;;;;;;5089296;28;20031;-72
2022/04/16 02:00:37;;;;;;;10.85;8.90;;;8.60;73.50;;;;;;5105553;28;20028;-71
2022/04/16 02:03:02;;;;;;;12.02;8.75;;;8.60;73.60;;;;;;5102592;28;20075;-73
2022/04/16 02:05:28;;;;;;;10.95;8.23;;;8.60;73.70;;;;;;5084027;28;20020;-69
2022/04/16 02:07:54;;;;;;;10.05;8.23;;;8.50;73.70;;;;;;5107593;28;20038;-71
2022/04/16 02:10:20;;;;;;;11.63;9.30;;;8.60;73.80;;;;;;5093642;28;20023;-72
2022/04/16 02:12:46;;;;;;;11.00;9.02;;;8.50;73.80;;;;;;5088814;28;20035;-71
2022/04/16 02:15:11;;;;;;;10.60;8.50;;;8.50;74.00;;;;;;5105510;28;20478;-72
2022/04/16 02:17:38;;;;;;;12.10;8.73;;;8.50;74.10;;;;;;5098053;28;20027;-72
2022/04/16 02:20:09;;;;;;;13.52;10.57;;;8.40;74.10;;;;;;5117576;28;20051;-70
2022/04/16 02:22:42;;;;;;;11.38;9.15;;;8.40;74.30;;;;;;5104914;28;20106;-71
2022/04/16 02:25:08;;;;;;;11.38;9.30;;;8.40;74.40;;;;;;5102002;28;20097;-72
2022/04/16 02:27:35;;;;;;;11.80;9.70;;;8.40;75.10;;;;;;5087979;28;20114;-72
2022/04/16 02:30:13;;;;;;;14.68;9.43;;;8.30;74.60;;;;;;5108802;28;20093;-71
2022/04/16 02:32:41;;;;;;;13.18;9.63;;;8.40;74.70;;;;;;5088752;28;20478;-72
2022/04/16 02:35:07;;;;;;;12.55;9.63;;;8.40;74.90;;;;;;5118596;28;20055;-70
2022/04/16 02:37:33;;;;;;;11.85;8.85;;;8.30;75.00;;;;;;5082776;28;20066;-70
2022/04/16 02:39:58;;;;;;;12.32;10.13;;;8.40;75.10;;;;;;5090085;28;20051;-69
2022/04/16 02:42:24;;;;;;;13.82;10.48;;;8.30;75.00;;;;;;5090843;28;20107;-71
2022/04/16 02:47:33;;;;;;;13.52;10.70;;;8.30;75.50;;;;;;5110719;27;20459;-73
2022/04/16 02:49:59;;;;;;;10.85;9.27;;;8.30;76.00;;;;;;5122541;27;20102;-71
2022/04/16 02:52:25;;;;;;;13.40;9.75;;;8.30;76.00;;;;;;5084930;28;20024;-71
2022/04/16 02:54:54;;;;;;;11.00;8.95;;;8.30;76.00;;;;;;5093588;28;20027;-74
2022/04/16 02:57:19;;;;;;;12.18;9.38;;;8.30;75.90;;;;;;5095933;28;20069;-71
2022/04/16 02:59:46;;;;;;;10.90;8.40;;;8.30;75.90;;;;;;5104516;28;20394;-73
2022/04/16 03:02:13;;;;;;;13.77;9.23;;;8.30;75.80;;;;;;5098102;28;20024;-71
2022/04/16 03:04:38;;;;;;;12.45;9.60;;;8.30;75.90;;;;;;5104879;27;20047;-71
2022/04/16 03:07:04;;;;;;;12.20;9.32;;;8.30;75.90;;;;;;5118921;27;20059;-70
2022/04/16 03:09:30;;;;;;;10.93;8.60;;;8.30;75.90;;;;;;5097948;27;20019;-69
2022/04/16 03:11:55;;;;;;;12.10;8.95;;;8.30;76.00;;;;;;5105156;27;20023;-70
2022/04/16 03:19:50;;;;;;;13.73;9.82;;;8.20;76.00;;;;;;5112012;27;20074;-71
2022/04/16 03:22:15;;;;;;;12.82;9.65;;;8.20;76.10;;;;;;5111573;27;20059;-70
2022/04/16 03:24:41;;;;;;;15.35;11.13;;;8.20;76.20;;;;;;5101897;28;20055;-72
2022/04/16 03:27:08;;;;;;;13.55;10.35;;;8.20;76.30;;;;;;5114713;27;20111;-71
2022/04/16 03:29:34;;;;;;;12.48;10.25;;;8.20;76.40;;;;;;5105639;28;20027;-72
2022/04/16 03:31:59;;;;;;;13.02;9.32;;;8.10;76.30;;;;;;5110259;28;20508;-72
2022/04/16 03:34:25;;;;;;;12.45;9.25;;;8.10;76.50;;;;;;5084272;28;20039;-71
2022/04/16 03:36:50;;;;;;;12.10;9.25;;;8.10;76.50;;;;;;5108565;27;20035;-71
2022/04/16 03:39:16;;;;;;;11.43;8.63;;;8.10;76.60;;;;;;5102829;27;20115;-68
2022/04/16 03:41:41;;;;;;;13.52;10.32;;;8.10;76.60;;;;;;5120820;27;20034;-69
2022/04/16 03:44:07;;;;;;;14.70;10.98;;;8.10;76.80;;;;;;5108333;27;20031;-69
2022/04/16 03:46:33;;;;;;;14.65;11.27;;;8.10;77.00;;;;;;5120903;27;20392;-70
2022/04/16 03:48:59;;;;;;;13.23;10.40;;;8.00;77.10;;;;;;5119944;27;20025;-69
2022/04/16 03:51:26;;;;;;;12.68;10.15;;;8.00;77.40;;;;;;5120972;27;20019;-71
2022/04/16 03:53:52;;;;;;;14.75;10.88;;;8.00;77.50;;;;;;5080458;28;20024;-70
2022/04/16 04:01:46;;;;;;;13.57;10.40;;;7.90;77.50;;;;;;5101228;28;20030;-72
2022/04/16 04:04:12;;;;;;;13.38;10.52;;;7.90;77.60;;;;;;5090103;28;20029;-72
2022/04/16 04:06:38;;;;;;;13.77;10.27;;;7.90;77.60;;;;;;5090663;28;20020;-74
2022/04/16 04:09:04;;;;;;;14.40;10.63;;;7.90;77.60;;;;;;5096399;28;20027;-72
2022/04/16 04:11:29;;;;;;;12.68;9.85;;;7.90;77.70;;;;;;5115213;27;20034;-72
2022/04/16 04:13:55;;;;;;;13.32;9.57;;;7.90;77.70;;;;;;5101155;28;20024;-72
2022/04/16 04:16:22;;;;;;;13.88;10.25;;;7.90;77.70;;;;;;5111262;28;20055;-72
2022/04/16 04:18:47;;;;;;;15.40;11.07;;;7.90;77.70;;;;;;5117551;27;20031;-72
2022/04/16 04:21:13;;;;;;;14.10;10.98;;;7.90;77.70;;;;;;5115572;27;20512;-72
2022/04/16 04:23:38;;;;;;;14.45;11.35;;;7.90;77.80;;;;;;5084863;28;20050;-72
2022/04/16 04:26:03;;;;;;;13.63;10.10;;;7.80;77.90;;;;;;5107277;28;20024;-72
2022/04/16 04:28:29;;;;;;;13.75;10.00;;;7.90;77.90;;;;;;5117433;27;20428;-72
2022/04/16 04:30:55;;;;;;;15.48;11.50;;;7.90;78.00;;;;;;5115104;27;20481;-73
2022/04/16 04:33:20;;;;;;;16.15;11.90;;;7.90;78.10;;;;;;5104342;28;20019;-71
2022/04/16 04:35:47;;;;;;;15.30;11.10;;;7.80;78.20;;;;;;5092915;28;20073;-70
2022/04/16 04:38:13;;;;;;;14.93;10.65;;;7.80;78.30;;;;;;5105426;28;20024;-71
2022/04/16 04:40:39;;;;;;;15.63;10.82;;;7.80;78.40;;;;;;5110637;28;20030;-70
2022/04/16 04:43:04;;;;;;;11.88;9.00;;;7.80;78.40;;;;;;5107650;28;20026;-69
2022/04/16 04:45:30;;;;;;;14.93;10.80;;;7.90;78.40;;;;;;5110208;28;20057;-72
2022/04/16 04:47:55;;;;;;;15.20;11.30;;;7.90;78.40;;;;;;5107276;28;20028;-72
2022/04/16 04:50:21;;;;;;;16.98;12.68;;;7.90;78.50;;;;;;5107962;28;20063;-70
2022/04/16 04:52:46;;;;;;;16.27;11.70;;;7.80;78.50;;;;;;5106495;28;20024;-71
2022/04/16 04:55:13;;;;;;;14.65;11.50;;;7.80;78.60;;;;;;5104644;28;20050;-69
2022/04/16 04:57:40;;;;;;;13.70;10.80;;;7.80;79.50;;;;;;5107336;28;20054;-71
2022/04/16 05:00:07;;;;;;;14.43;10.77;;;7.80;78.90;;;;;;5087514;27;20484;-71
2022/04/16 05:02:43;;;;;;;15.02;11.35;;;7.80;78.80;;;;;;5100602;27;20524;-72
2022/04/16 05:05:09;;;;;;;16.23;11.95;;;7.80;78.90;;;;;;5104749;27;20445;-69
2022/04/16 05:07:35;;;;;;;15.80;12.30;;;7.90;79.00;;;;;;5103546;28;20107;-71
2022/04/16 05:10:01;;;;;;;15.82;11.98;;;7.90;78.90;;;;;;5104110;27;20016;-71
2022/04/16 05:12:27;;;;;;;18.25;13.60;;;7.90;78.80;;;;;;5105429;27;20032;-71
2022/04/16 05:14:52;;;;;;;17.20;12.30;;;7.90;78.90;;;;;;5082261;28;20131;-72
2022/04/16 05:17:18;;;;;;;15.05;11.40;;;8.00;78.90;;;;;;5084779;28;20035;-71
2022/04/16 05:19:43;;;;;;;15.80;11.23;;;8.00;78.80;;;;;;5100587;28;20031;-71
2022/04/16 05:22:09;;;;;;;17.05;12.65;;;8.00;78.70;;;;;;5099085;28;20501;-72
2022/04/16 05:24:34;;;;;;;14.98;12.05;;;8.10;78.80;;;;;;5081263;28;20074;-70
2022/04/16 05:26:59;;;;;;;14.15;10.45;;;8.10;78.80;;;;;;5104154;27;20189;-72
2022/04/16 05:29:25;;;;;;;15.23;11.50;;;8.20;78.70;;;;;;5099305;27;20624;-70
2022/04/16 05:31:50;;;;;;;16.38;12.25;;;8.50;78.80;;;;;;5104264;28;20032;-70
2022/04/16 05:34:19;;;;;;;14.43;11.75;;;9.00;78.00;;;;;;5080779;28;20078;-71
2022/04/16 05:36:48;;;;;;;14.70;11.18;;;9.50;76.80;;;;;;5097538;28;20062;-71
2022/04/16 05:39:14;;;;;;;17.60;12.70;;;10.00;76.00;;;;;;5097976;28;20140;-72
2022/04/16 05:41:39;;;;;;;17.80;13.15;;;10.40;74.10;;;;;;5099557;28;20106;-72
2022/04/16 05:44:05;;;;;;;16.25;12.57;;;10.90;73.10;;;;;;5102379;28;20027;-71
2022/04/16 05:46:31;;;;;;;19.08;15.05;;;11.10;72.00;;;;;;5101476;27;20043;-72
2022/04/16 05:48:57;;;;;;;18.42;14.30;;;10.80;71.70;;;;;;5102864;28;20087;-72
2022/04/16 05:51:24;;;;;;;16.42;12.68;;;10.60;72.30;;;;;;5106211;28;20054;-71
2022/04/16 05:53:51;;;;;;;15.77;12.73;;;10.60;72.70;;;;;;5100881;28;20073;-71
2022/04/16 05:56:18;;;;;;;14.63;11.00;;;10.50;72.70;;;;;;5106100;28;20028;-71
2022/04/16 05:58:44;;;;;;;16.95;13.32;;;10.50;73.00;;;;;;5101166;28;20093;-72
2022/04/16 06:01:10;;;;;;;20.95;15.73;;;10.40;73.20;;;;;;5080729;28;20019;-70
2022/04/16 06:03:42;;;;;;;16.33;13.07;;;10.20;73.70;;;;;;5099336;28;20047;-71
2022/04/16 06:06:10;;;;;;;18.63;14.52;;;10.40;74.20;;;;;;5104818;28;20027;-72
2022/04/16 06:08:37;;;;;;;16.02;13.18;;;10.70;73.80;;;;;;5080743;28;20024;-72
2022/04/16 06:11:04;;;;;;;16.38;12.38;;;11.10;73.40;;;;;;5112091;28;20024;-73
2022/04/16 06:13:30;;;;;;;22.20;16.70;;;11.70;72.10;;;;;;5099649;28;20012;-72
2022/04/16 06:15:56;;;;;;;17.98;14.63;;;12.00;71.20;;;;;;5097067;28;20027;-70
2022/04/16 06:18:22;;;;;;;16.13;12.68;;;12.30;70.40;;;;;;5106726;27;20032;-71
2022/04/16 06:20:47;;;;;;;17.63;14.52;;;12.40;70.00;;;;;;5105976;27;20039;-70
2022/04/16 06:23:13;;;;;;;19.70;16.90;;;12.40;69.50;;;;;;5085435;28;20044;-70
2022/04/16 06:25:38;;;;;;;19.80;15.27;;;12.40;69.50;;;;;;5087770;28;20145;-70
2022/04/16 06:28:04;;;;;;;17.90;14.30;;;12.70;69.50;;;;;;5111097;28;20020;-72
2022/04/16 06:30:33;;;;;;;13.48;11.35;;;13.10;68.80;;;;;;5088919;28;20023;-73
2022/04/16 06:32:58;;;;;;;13.30;10.70;;;13.90;67.60;;;;;;5106171;28;20043;-72
2022/04/16 06:35:24;;;;;;;17.88;14.70;;;14.90;65.60;;;;;;5107392;27;20098;-72
2022/04/16 06:37:50;;;;;;;14.43;11.68;;;15.70;62.70;;;;;;5089204;28;20038;-71
2022/04/16 06:40:15;;;;;;;13.07;11.23;;;16.60;61.30;;;;;;5105040;27;20046;-73
2022/04/16 06:42:41;;;;;;;18.42;14.65;;;17.20;59.60;;;;;;5090354;28;20023;-72
2022/04/16 06:45:08;;;;;;;15.65;13.05;;;17.20;57.60;;;;;;5106753;27;20035;-71
2022/04/16 06:47:34;;;;;;;16.90;13.55;;;17.10;57.60;;;;;;5093258;28;20036;-71
2022/04/16 06:50:00;;;;;;;17.13;14.25;;;17.40;57.10;;;;;;5115210;27;20020;-70
2022/04/16 06:52:26;;;;;;;17.25;14.00;;;17.10;56.30;;;;;;5111945;28;20723;-73
2022/04/16 06:54:51;;;;;;;17.90;14.38;;;17.00;56.00;;;;;;5088653;28;20391;-71
2022/04/16 06:57:17;;;;;;;16.52;12.75;;;16.40;55.90;;;;;;5111359;28;20047;-73
2022/04/16 06:59:43;;;;;;;15.90;13.35;;;16.30;57.60;;;;;;5092118;28;20039;-72
2022/04/16 07:02:10;;;;;;;16.65;14.43;;;16.60;57.00;;;;;;5088082;28;20147;-71
2022/04/16 07:04:36;;;;;;;15.55;12.50;;;16.90;56.00;;;;;;5108701;28;20032;-72
2022/04/16 07:07:02;;;;;;;16.38;12.77;;;16.90;55.50;;;;;;5111406;28;20492;-73
2022/04/16 07:09:28;;;;;;;15.40;13.10;;;17.10;55.50;;;;;;5112260;28;20058;-73
2022/04/16 07:11:53;;;;;;;17.23;13.52;;;17.30;54.50;;;;;;5108947;28;20401;-72
2022/04/16 07:14:20;;;;;;;16.38;13.05;;;17.20;53.90;;;;;;5095073;28;20389;-70
2022/04/16 07:16:46;;;;;;;17.23;13.85;;;16.90;54.50;;;;;;5112693;28;20450;-72
2022/04/16 07:19:11;;;;;;;16.98;13.50;;;17.00;54.90;;;;;;5105701;28;20055;-71
2022/04/16 07:21:37;;;;;;;17.45;13.82;;;16.70;54.60;;;;;;5090139;28;20039;-73
2022/04/16 07:24:03;;;;;;;15.63;12.63;;;16.50;55.10;;;;;;5111060;28;20035;-73
2022/04/16 07:26:28;;;;;;;14.45;12.20;;;16.70;55.10;;;;;;5091565;28;20030;-72
2022/04/16 07:28:54;;;;;;;16.75;13.32;;;17.00;54.60;;;;;;5091061;28;20019;-72
2022/04/16 07:31:19;;;;;;;19.65;15.70;;;17.00;54.40;;;;;;5090287;28;20500;-72
2022/04/16 07:33:45;;;;;;;16.65;13.63;;;16.90;53.40;;;;;;5097005;28;20039;-72
2022/04/16 07:36:11;;;;;;;14.82;11.88;;;16.80;54.30;;;;;;5090543;28;20394;-72
2022/04/16 07:38:36;;;;;;;14.65;12.00;;;17.10;54.10;;;;;;5107252;28;20020;-72
2022/04/16 07:41:02;;;;;;;16.00;12.38;;;17.90;53.30;;;;;;5102455;28;20502;-71
2022/04/16 07:43:29;;;;;;;14.15;11.90;;;18.30;52.40;;;;;;5106863;28;20432;-72
2022/04/16 07:45:55;;;;;;;15.98;13.10;;;18.50;51.50;;;;;;5109437;28;20406;-72
2022/04/16 07:48:20;;;;;;;16.15;12.95;;;18.90;50.10;;;;;;5105264;28;20020;-71
2022/04/16 07:50:46;;;;;;;16.45;13.75;;;18.40;50.40;;;;;;5085932;28;20039;-73
2022/04/16 07:53:11;;;;;;;18.15;14.68;;;18.40;50.80;;;;;;5111657;28;20023;-72
2022/04/16 07:55:37;;;;;;;15.15;12.25;;;19.00;50.30;;;;;;5101881;28;20028;-71
2022/04/16 07:58:03;;;;;;;15.50;12.80;;;18.70;49.80;;;;;;5126303;28;20055;-71
2022/04/16 08:00:28;;;;;;;15.23;11.38;;;18.50;50.40;;;;;;5120135;28;20074;-73
2022/04/16 08:02:54;;;;;;;15.60;12.70;;;18.90;50.10;;;;;;5114114;28;20035;-73
2022/04/16 08:05:20;;;;;;;12.80;10.38;;;19.00;49.60;;;;;;5110392;28;20020;-73
2022/04/16 08:07:46;;;;;;;20.30;13.82;;;19.20;49.90;;;;;;5112511;28;20038;-71
2022/04/16 08:10:11;;;;;;;13.10;10.25;;;19.50;48.30;;;;;;5082307;28;20031;-71
2022/04/16 08:12:37;;;;;;;16.98;13.07;;;19.70;48.60;;;;;;5082822;28;20410;-72
2022/04/16 08:15:06;;;;;;;13.60;10.75;;;19.20;47.50;;;;;;5085518;27;20039;-71
2022/04/16 08:17:33;;;;;;;15.38;11.35;;;19.10;48.60;;;;;;5080689;28;20042;-71
2022/04/16 08:19:58;;;;;;;15.35;11.93;;;19.20;48.30;;;;;;5080540;28;20417;-72
2022/04/16 08:22:28;;;;;;;15.18;10.80;;;18.90;48.00;;;;;;5109491;27;20016;-72
2022/04/16 08:27:38;;;;;;;12.75;10.43;;;18.40;49.60;;;;;;5117117;28;20092;-71
2022/04/16 08:30:03;;;;;;;11.88;9.50;;;18.30;49.90;;;;;;5093986;28;20019;-71
2022/04/16 08:32:34;;;;;;;12.40;9.52;;;18.60;50.20;;;;;;5099982;28;20055;-72
2022/04/16 08:35:00;;;;;;;11.95;10.30;;;18.90;50.10;;;;;;5104488;28;20026;-71
2022/04/16 08:37:25;;;;;;;12.18;9.80;;;19.00;49.50;;;;;;5099869;27;20016;-72
2022/04/16 08:39:51;;;;;;;15.80;10.82;;;18.70;50.10;;;;;;5105506;27;20514;-72
2022/04/16 08:42:17;;;;;;;11.40;9.15;;;18.50;49.90;;;;;;5107387;27;20028;-71
2022/04/16 08:44:43;;;;;;;11.88;8.60;;;18.00;51.00;;;;;;5108569;27;20035;-72
2022/04/16 08:47:09;;;;;;;11.65;9.52;;;17.60;52.90;;;;;;5107052;27;20485;-71
2022/04/16 08:49:35;;;;;;;12.43;9.45;;;17.40;53.10;;;;;;5100135;27;20529;-71
2022/04/16 08:52:02;;;;;;;11.18;9.02;;;17.00;53.70;;;;;;5080834;27;20103;-71
2022/04/16 08:54:28;;;;;;;12.73;9.13;;;16.70;54.90;;;;;;5103693;27;20058;-72
2022/04/16 08:56:55;;;;;;;12.38;9.77;;;16.10;55.60;;;;;;5086363;28;20040;-71
2022/04/16 08:59:20;;;;;;;11.30;8.75;;;15.60;56.00;;;;;;5083872;28;20028;-72
2022/04/16 09:01:46;;;;;;;12.15;10.27;;;15.10;57.00;;;;;;5101780;27;20476;-72
2022/04/16 09:04:21;;;;;;;13.65;10.52;;;14.70;57.50;;;;;;5097831;28;20035;-72
2022/04/16 09:07:01;;;;;;;12.77;10.13;;;14.30;58.10;;;;;;5102592;27;20032;-72
2022/04/16 09:09:27;;;;;;;12.25;9.98;;;14.00;59.40;;;;;;5104052;28;20481;-72
2022/04/16 09:11:53;;;;;;;12.13;10.15;;;13.80;60.30;;;;;;5104618;27;20025;-71
2022/04/16 09:14:19;;;;;;;13.07;10.30;;;13.60;60.70;;;;;;5103167;27;20393;-72
2022/04/16 09:16:45;;;;;;;13.38;10.95;;;13.50;61.40;;;;;;5102344;27;20028;-71
2022/04/16 09:19:21;;;;;;;11.52;8.98;;;13.60;61.80;;;;;;5102739;28;20118;-72
2022/04/16 09:21:47;;;;;;;9.98;8.75;;;13.60;61.70;;;;;;5088310;28;20154;-72
2022/04/16 09:24:12;;;;;;;11.57;9.32;;;13.80;61.60;;;;;;5105171;28;20049;-72
2022/04/16 09:26:39;;;;;;;12.20;9.90;;;13.90;61.00;;;;;;5086645;28;20036;-71
2022/04/16 09:29:09;;;;;;;8.55;7.35;;;13.90;60.40;;;;;;5109806;28;20027;-72
2022/04/16 09:31:39;;;;;;;11.43;9.02;;;13.90;60.30;;;;;;5098421;28;20024;-71
2022/04/16 09:34:16;;;;;;;10.88;9.18;;;13.80;59.90;;;;;;5106731;28;20016;-72
2022/04/16 09:36:44;;;;;;;11.73;9.45;;;13.90;60.10;;;;;;5103335;28;20984;-72
2022/04/16 09:39:13;;;;;;;11.75;9.40;;;13.90;59.30;;;;;;5109168;28;20409;-72
2022/04/16 09:41:40;;;;;;;12.15;9.30;;;13.80;59.10;;;;;;5102722;28;20052;-72
2022/04/16 09:44:21;;;;;;;11.93;9.60;;;13.70;59.70;;;;;;5087513;28;20106;-72
2022/04/16 09:46:48;;;;;;;11.23;9.20;;;13.90;59.50;;;;;;5108111;28;20057;-71
2022/04/16 09:49:15;;;;;;;11.52;9.30;;;13.90;59.10;;;;;;5102335;28;20485;-72
2022/04/16 09:51:42;;;;;;;11.93;8.52;;;13.90;58.90;;;;;;5084204;28;20564;-72
2022/04/16 09:54:09;;;;;;;10.38;7.85;;;13.90;58.90;;;;;;5107112;28;20020;-72
2022/04/16 09:56:36;;;;;;;9.88;7.20;;;14.00;59.10;;;;;;5112271;28;20018;-72
2022/04/16 09:59:04;;;;;;;11.05;8.45;;;14.10;59.00;;;;;;5111599;28;20651;-72
2022/04/16 10:01:31;;;;;;;10.43;7.85;;;14.10;58.40;;;;;;5119637;27;20031;-72
2022/04/16 10:03:58;;;;;;;10.63;8.70;;;14.00;58.40;;;;;;5116065;27;20031;-72
2022/04/16 10:06:24;;;;;;;10.82;8.52;;;14.10;58.30;;;;;;5126544;27;20045;-72
2022/04/16 10:08:50;;;;;;;9.88;7.50;;;13.90;58.30;;;;;;5121975;27;20391;-72
2022/04/16 10:11:20;;;;;;;11.02;8.73;;;14.00;58.90;;;;;;5123322;27;20034;-72
2022/04/16 10:13:58;;;;;;;10.00;8.50;;;14.00;58.30;;;;;;5089359;28;20032;-72
2022/04/16 10:16:39;;;;;;;9.93;7.20;;;14.00;58.10;;;;;;5110177;27;20015;-72
2022/04/16 10:19:16;;;;;;;8.70;7.15;;;14.10;58.10;;;;;;5082385;28;20455;-72
2022/04/16 10:21:42;;;;;;;9.18;7.13;;;14.30;57.10;;;;;;5118480;27;20023;-72
2022/04/16 10:24:08;;;;;;;9.18;7.15;;;14.40;56.40;;;;;;5109556;27;20078;-73
2022/04/16 10:26:38;;;;;;;8.68;6.97;;;14.40;56.30;;;;;;5111217;28;20023;-72
2022/04/16 10:29:04;;;;;;;7.20;6.05;;;14.40;55.30;;;;;;5115387;27;20016;-72
2022/04/16 10:31:32;;;;;;;8.48;6.80;;;14.30;55.10;;;;;;5126610;27;20022;-72
2022/04/16 10:34:05;;;;;;;7.05;5.63;;;14.30;55.00;;;;;;5104129;27;20153;-72
2022/04/16 10:36:54;;;;;;;7.72;5.80;;;14.30;55.10;;;;;;5104263;28;20082;-72
2022/04/16 10:39:28;;;;;;;8.32;6.55;;;14.30;55.30;;;;;;5100642;28;20498;-72
2022/04/16 10:41:57;;;;;;;7.65;5.57;;;14.30;55.40;;;;;;5092035;28;20551;-72
2022/04/16 10:44:23;;;;;;;8.07;6.53;;;14.40;55.60;;;;;;5102903;27;20099;-72
2022/04/16 10:46:51;;;;;;;6.70;5.38;;;14.60;55.60;;;;;;5109637;27;20081;-72
2022/04/16 10:49:18;;;;;;;7.25;6.03;;;14.70;55.10;;;;;;5110124;27;20050;-72
2022/04/16 10:51:44;;;;;;;5.97;5.00;;;14.70;54.10;;;;;;5085067;28;20085;-72
2022/04/16 10:54:15;;;;;;;5.43;4.65;;;14.70;53.30;;;;;;5086677;28;20020;-72
2022/04/16 10:56:51;;;;;;;5.88;4.63;;;14.80;53.50;;;;;;5108881;27;20062;-72
2022/04/16 10:59:17;;;;;;;6.53;5.28;;;14.90;53.30;;;;;;5107978;28;20115;-72
2022/04/16 11:01:53;;;;;;;6.18;4.28;;;14.90;52.30;;;;;;5106100;27;20110;-72
2022/04/16 11:04:19;;;;;;;5.25;4.43;;;15.00;52.80;;;;;;5088778;28;20123;-72
2022/04/16 11:06:48;;;;;;;6.55;4.53;;;15.10;52.20;;;;;;5101442;27;20027;-72
2022/04/16 11:09:16;;;;;;;4.93;3.90;;;15.20;51.80;;;;;;5107896;27;20087;-72
2022/04/16 11:11:43;;;;;;;5.22;4.30;;;15.30;51.70;;;;;;5107587;27;20047;-72
2022/04/16 11:14:09;;;;;;;5.00;4.15;;;15.30;51.50;;;;;;5106886;28;20040;-72
2022/04/16 11:16:47;;;;;;;6.18;4.72;;;15.40;51.80;;;;;;5102707;28;20019;-72
2022/04/16 11:19:17;;;;;;;5.68;4.60;;;15.40;51.00;;;;;;5085398;28;20804;-72
2022/04/16 11:21:45;;;;;;;6.03;4.65;;;15.30;50.70;;;;;;5109991;28;20042;-72
2022/04/16 11:24:11;;;;;;;5.38;3.78;;;15.30;50.70;;;;;;5093717;28;20464;-71
2022/04/16 11:34:57;;;;;;;4.88;3.33;;;15.50;50.20;;;;;;5106445;28;20148;-72
2022/04/16 11:37:23;;;;;;;4.80;3.60;;;15.60;49.90;;;;;;5087611;28;20039;-72
2022/04/16 11:40:00;;;;;;;4.95;3.90;;;15.70;49.10;;;;;;5092276;28;20026;-72
2022/04/16 11:42:26;;;;;;;5.25;4.40;;;15.80;48.30;;;;;;5110616;28;20032;-73
2022/04/16 11:44:52;;;;;;;4.57;3.60;;;15.80;48.10;;;;;;5111364;28;20035;-72
2022/04/16 11:47:28;;;;;;;4.95;3.92;;;15.80;48.40;;;;;;5093877;28;20028;-72
2022/04/16 11:50:00;;;;;;;5.93;4.85;;;15.80;48.00;;;;;;5099190;28;20028;-72
2022/04/16 11:52:28;;;;;;;4.97;3.90;;;15.70;47.90;;;;;;5107172;27;20026;-73
2022/04/16 11:55:14;;;;;;;5.55;3.70;;;15.60;47.50;;;;;;5117810;27;20107;-72
2022/04/16 11:57:45;;;;;;;5.38;3.97;;;15.70;47.70;;;;;;5113987;27;20035;-71
2022/04/16 12:00:11;;;;;;;5.57;4.30;;;15.80;46.90;;;;;;5109487;28;20381;-72
2022/04/16 12:02:39;;;;;;;6.18;3.67;;;15.80;46.00;;;;;;5087038;28;20024;-72
2022/04/16 12:05:10;;;;;;;5.15;3.70;;;15.70;46.30;;;;;;5105544;28;20038;-72
2022/04/16 12:07:37;;;;;;;5.18;3.55;;;15.90;46.90;;;;;;5117942;27;20047;-72
2022/04/16 12:10:07;;;;;;;5.53;3.50;;;16.00;45.50;;;;;;5102689;27;20111;-74
2022/04/16 12:12:47;;;;;;;4.60;3.50;;;15.90;44.80;;;;;;5101048;28;20031;-75
2022/04/16 12:15:20;;;;;;;4.13;3.20;;;15.90;44.40;;;;;;5094016;27;20585;-74
2022/04/16 12:17:46;;;;;;;5.47;3.45;;;16.00;43.90;;;;;;5119259;27;20561;-73
2022/04/16 12:20:12;;;;;;;5.57;3.42;;;16.00;43.30;;;;;;5123033;27;20055;-72
2022/04/16 12:22:50;;;;;;;4.88;3.00;;;16.00;43.40;;;;;;5111505;27;20509;-72
2022/04/16 12:25:18;;;;;;;4.45;3.33;;;16.30;44.00;;;;;;5100473;27;20152;-72
2022/04/16 12:28:08;;;;;;;4.38;3.50;;;16.40;44.10;;;;;;5117016;27;20027;-72
2022/04/16 12:30:37;;;;;;;5.32;4.20;;;16.60;44.40;;;;;;5089072;27;20023;-72
2022/04/16 12:33:05;;;;;;;6.10;4.10;;;17.00;43.80;;;;;;5115492;27;20425;-72
2022/04/16 12:35:32;;;;;;;5.28;4.20;;;16.90;42.80;;;;;;5099926;27;20026;-72
2022/04/16 12:37:59;;;;;;;5.93;4.18;;;16.90;41.90;;;;;;5118623;27;20077;-72
2022/04/16 12:40:26;;;;;;;6.25;4.13;;;16.90;41.60;;;;;;5114938;27;20027;-72
2022/04/16 12:42:53;;;;;;;5.47;3.92;;;16.80;40.80;;;;;;5097953;28;20032;-72
2022/04/16 12:45:20;;;;;;;4.55;3.35;;;16.80;41.10;;;;;;5100490;27;20035;-72
2022/04/16 12:47:46;;;;;;;4.95;3.50;;;16.80;40.80;;;;;;5090767;28;20421;-72
2022/04/16 12:50:13;;;;;;;5.30;3.50;;;16.70;39.00;;;;;;5078428;28;20026;-73
2022/04/16 12:52:40;;;;;;;4.35;3.25;;;16.80;38.70;;;;;;5108789;28;20023;-73
2022/04/16 12:55:07;;;;;;;4.72;3.42;;;16.70;38.60;;;;;;5103078;27;20070;-73
2022/04/16 12:57:33;;;;;;;4.30;3.22;;;16.70;37.70;;;;;;5108339;28;20056;-73
2022/04/16 12:59:58;;;;;;;4.60;3.17;;;16.70;38.00;;;;;;5117710;27;20062;-73
2022/04/16 13:02:25;;;;;;;3.83;2.85;;;16.80;37.40;;;;;;5105846;27;20027;-73
2022/04/16 13:04:51;;;;;;;4.13;3.25;;;16.80;36.90;;;;;;5107352;28;20027;-73